Time;durP1;ratioP1;P1;durP2;ratioP2;P2;SDS_P1;SDS_P2;PMS_P1;PMS_P2;Temp;Humidity;BMP_temperature;BMP_pressure;BME280_temperature;BME280_humidity;BME280_pressure;Samples;Min_cycle;Max_cycle;Signal;HPM_P1;HPM_P2
2023/06/19 00:01:51;;;;;;;116.95;111.70;;;;;;;27.95;32.32;100703.78;5033206;28;20033;-70
2023/06/19 00:04:16;;;;;;;115.93;110.70;;;;;;;27.94;32.68;100704.94;5032715;28;20030;-71
2023/06/19 00:06:42;;;;;;;112.00;106.97;;;;;;;27.93;32.13;100706.13;5032320;28;20474;-71
2023/06/19 00:09:07;;;;;;;115.22;110.07;;;;;;;27.90;32.60;100707.66;5033023;28;20091;-70
2023/06/19 00:11:33;;;;;;;112.30;107.38;;;;;;;27.90;32.33;100706.84;5033061;28;20491;-71
2023/06/19 00:13:58;;;;;;;114.22;109.13;;;;;;;27.88;32.29;100718.31;5031873;28;20057;-70
2023/06/19 00:16:25;;;;;;;111.88;106.93;;;;;;;27.86;32.60;100723.41;5032644;28;20056;-71
2023/06/19 00:18:54;;;;;;;114.88;109.78;;;;;;;27.85;32.39;100716.25;5032561;28;20433;-71
2023/06/19 00:21:20;;;;;;;113.75;108.55;;;;;;;27.83;32.66;100716.59;5032487;28;20037;-70
2023/06/19 00:23:45;;;;;;;113.13;108.00;;;;;;;27.82;32.78;100715.00;5032965;28;20141;-69
2023/06/19 00:26:14;;;;;;;110.13;105.15;;;;;;;27.81;32.64;100720.88;5032934;28;20029;-71
2023/06/19 00:28:41;;;;;;;112.57;107.60;;;;;;;27.79;32.71;100726.78;5032549;28;20057;-70
2023/06/19 00:31:06;;;;;;;111.35;106.35;;;;;;;27.78;32.54;100732.69;5032834;28;20553;-71
2023/06/19 00:33:32;;;;;;;109.70;104.88;;;;;;;27.76;32.46;100740.56;5032174;28;20407;-70
2023/06/19 00:35:57;;;;;;;109.35;104.50;;;;;;;27.75;32.59;100741.75;5032531;28;20080;-70
2023/06/19 00:38:23;;;;;;;109.72;104.93;;;;;;;27.72;32.67;100734.13;5031668;28;20033;-71
2023/06/19 00:40:49;;;;;;;107.97;103.03;;;;;;;27.71;32.48;100746.41;5032232;28;20033;-70
2023/06/19 00:43:14;;;;;;;109.90;104.97;;;;;;;27.71;32.65;100746.41;5030387;28;20033;-70
2023/06/19 00:45:39;;;;;;;111.55;106.40;;;;;;;27.69;32.98;100745.94;5031836;28;20474;-72
2023/06/19 00:48:05;;;;;;;107.57;102.68;;;;;;;27.67;32.60;100754.66;5032595;28;20033;-71
2023/06/19 00:50:31;;;;;;;112.07;107.03;;;;;;;27.64;32.84;100755.34;5031878;28;20033;-71
2023/06/19 00:52:57;;;;;;;114.47;109.18;;;;;;;27.64;33.04;100763.66;5031344;28;20044;-71
2023/06/19 00:55:28;;;;;;;107.15;102.25;;;;;;;27.62;32.81;100755.72;5030807;28;20038;-71
2023/06/19 00:57:54;;;;;;;109.18;104.38;;;;;;;27.59;32.86;100767.53;5032375;28;20493;-70
2023/06/19 01:00:19;;;;;;;114.35;108.40;;;;;;;27.58;32.78;100763.13;5031743;28;20033;-71
2023/06/19 01:02:47;;;;;;;108.70;103.82;;;;;;;27.56;32.82;100764.66;5032266;28;20041;-70
2023/06/19 01:05:12;;;;;;;109.32;104.47;;;;;;;27.54;32.74;100772.53;5031999;28;20082;-70
2023/06/19 01:07:56;;;;;;;108.20;103.43;;;;;;;27.51;32.84;100762.97;5031050;28;20038;-71
2023/06/19 01:10:26;;;;;;;112.88;107.97;;;;;;;27.49;32.87;100773.59;5031549;28;20457;-70
2023/06/19 01:13:07;;;;;;;106.90;102.05;;;;;;;27.48;33.04;100772.00;5031847;28;20033;-70
2023/06/19 01:15:35;;;;;;;109.68;104.78;;;;;;;27.46;33.32;100768.78;5031667;28;20053;-70
2023/06/19 01:18:01;;;;;;;108.65;103.88;;;;;;;27.45;33.64;100764.41;5031790;28;20036;-70
2023/06/19 01:20:28;;;;;;;109.60;104.80;;;;;;;27.43;33.28;100772.25;5031322;28;20034;-70
2023/06/19 01:22:56;;;;;;;107.45;102.65;;;;;;;27.41;33.58;100772.59;5031837;28;20584;-71
2023/06/19 01:25:25;;;;;;;109.70;104.75;;;;;;;27.39;33.84;100774.97;5031345;28;20048;-70
2023/06/19 01:27:51;;;;;;;108.15;103.50;;;;;;;27.38;33.71;100770.56;5031716;28;20374;-70
2023/06/19 01:30:16;;;;;;;111.32;106.15;;;;;;;27.36;33.32;100778.41;5031735;28;20040;-70
2023/06/19 01:32:58;;;;;;;109.40;104.63;;;;;;;27.36;34.14;100774.84;5031348;28;20026;-70
2023/06/19 01:35:28;;;;;;;110.25;105.18;;;;;;;27.33;33.86;100762.50;5031209;28;20049;-71
2023/06/19 01:37:54;;;;;;;106.50;101.90;;;;;;;27.32;33.88;100769.22;5031597;28;20124;-70
2023/06/19 01:40:25;;;;;;;108.72;103.90;;;;;;;27.31;34.03;100777.88;5031362;28;20025;-71
2023/06/19 01:42:52;;;;;;;108.00;103.25;;;;;;;27.29;34.49;100767.16;5031779;28;20039;-70
2023/06/19 01:45:18;;;;;;;110.18;105.38;;;;;;;27.27;33.88;100785.31;5031308;28;20036;-70
2023/06/19 01:47:43;;;;;;;107.63;102.93;;;;;;;27.26;33.81;100775.38;5031148;28;20026;-71
2023/06/19 01:50:10;;;;;;;108.03;103.43;;;;;;;27.25;33.73;100776.53;5031191;28;20041;-71
2023/06/19 01:52:36;;;;;;;108.78;103.93;;;;;;;27.22;34.02;100772.50;5031268;28;20033;-70
2023/06/19 01:55:02;;;;;;;106.32;101.53;;;;;;;27.21;33.96;100784.75;5023353;28;20080;-70
2023/06/19 01:57:27;;;;;;;104.07;99.47;;;;;;;27.19;33.77;100776.81;5015983;28;20041;-69
2023/06/19 01:59:53;;;;;;;112.85;107.88;;;;;;;27.17;33.84;100792.97;5016077;28;20041;-69
2023/06/19 02:02:18;;;;;;;106.72;102.00;;;;;;;27.16;34.32;100788.56;5016488;28;20482;-69
2023/06/19 02:04:44;;;;;;;108.78;103.97;;;;;;;27.16;34.15;100785.78;5015731;28;20034;-69
2023/06/19 02:07:09;;;;;;;106.57;101.97;;;;;;;27.14;34.52;100792.84;5034307;28;20527;-69
2023/06/19 02:09:37;;;;;;;115.63;109.82;;;;;;;27.12;34.79;100793.22;5034396;28;20034;-69
2023/06/19 02:12:03;;;;;;;106.40;101.70;;;;;;;27.12;34.52;100801.53;5035261;28;20113;-69
2023/06/19 02:14:28;;;;;;;106.85;102.15;;;;;;;27.10;34.16;100800.28;5034362;28;20063;-69
2023/06/19 02:16:54;;;;;;;109.43;104.55;;;;;;;27.09;34.53;100796.69;5034886;28;20061;-69
2023/06/19 02:19:19;;;;;;;108.47;103.68;;;;;;;27.07;34.68;100807.34;5034294;28;20033;-69
2023/06/19 02:21:45;;;;;;;105.45;100.80;;;;;;;27.06;34.43;100804.91;5034710;28;20057;-69
2023/06/19 02:24:10;;;;;;;108.50;103.70;;;;;;;27.04;34.45;100810.81;5033949;28;20515;-69
2023/06/19 02:26:36;;;;;;;107.20;102.50;;;;;;;27.03;34.58;100816.69;5034439;28;20464;-69
2023/06/19 02:29:01;;;;;;;105.25;100.65;;;;;;;27.02;34.37;100804.81;5034704;28;20171;-69
2023/06/19 02:31:27;;;;;;;110.95;106.10;;;;;;;27.00;34.34;100801.56;5034564;28;20113;-69
2023/06/19 02:33:52;;;;;;;110.18;105.28;;;;;;;26.98;34.53;100807.47;5034876;28;20036;-69
2023/06/19 02:36:19;;;;;;;104.28;99.70;;;;;;;26.98;34.62;100804.69;5034423;28;20033;-69
2023/06/19 02:38:50;;;;;;;107.53;102.72;;;;;;;26.97;34.72;100802.28;5014864;28;20041;-69
2023/06/19 02:41:16;;;;;;;108.95;103.72;;;;;;;26.95;34.97;100813.72;5015459;28;20092;-69
2023/06/19 02:43:42;;;;;;;107.18;102.28;;;;;;;26.94;35.09;100814.09;5015000;28;20038;-69
2023/06/19 02:46:08;;;;;;;107.13;102.03;;;;;;;26.93;35.08;100820.78;5015215;28;20122;-69
2023/06/19 02:48:34;;;;;;;107.53;102.78;;;;;;;26.91;35.28;100817.53;5015109;28;20466;-69
2023/06/19 02:50:59;;;;;;;105.50;100.70;;;;;;;26.90;35.36;100815.94;5015039;28;20041;-69
2023/06/19 02:53:25;;;;;;;108.15;103.45;;;;;;;26.88;35.11;100813.50;5014850;28;20474;-69
2023/06/19 02:55:50;;;;;;;104.43;99.82;;;;;;;26.87;34.89;100811.91;5015231;28;20034;-69
2023/06/19 02:58:16;;;;;;;106.82;102.05;;;;;;;26.86;35.22;100824.16;5014976;28;20034;-69
2023/06/19 03:00:41;;;;;;;105.88;101.18;;;;;;;26.85;35.48;100816.19;5014467;28;20057;-69
2023/06/19 03:03:07;;;;;;;103.95;99.43;;;;;;;26.83;34.96;100824.03;5014939;28;20038;-69
2023/06/19 03:05:32;;;;;;;110.40;105.50;;;;;;;26.82;35.09;100830.75;5014660;28;20096;-69
2023/06/19 03:07:57;;;;;;;105.57;100.78;;;;;;;26.79;35.38;100823.94;5014559;28;20124;-69
2023/06/19 03:10:23;;;;;;;103.35;98.85;;;;;;;26.77;35.67;100835.38;5015095;28;20386;-69
2023/06/19 03:12:49;;;;;;;104.88;100.18;;;;;;;26.76;35.53;100831.00;5013663;28;20026;-69
2023/06/19 03:15:14;;;;;;;109.45;104.55;;;;;;;26.73;35.63;100837.22;5014758;28;20080;-69
2023/06/19 03:17:39;;;;;;;104.97;100.28;;;;;;;26.73;35.82;100841.97;5014368;28;20462;-69
2023/06/19 03:20:06;;;;;;;106.57;101.53;;;;;;;26.72;35.54;100838.38;5014579;28;20503;-69
2023/06/19 03:22:31;;;;;;;105.45;100.78;;;;;;;26.69;35.43;100839.09;5014657;28;20026;-69
2023/06/19 03:24:57;;;;;;;104.90;100.28;;;;;;;26.69;35.75;100843.84;5013473;28;20049;-69
2023/06/19 03:27:24;;;;;;;103.28;98.70;;;;;;;26.66;35.43;100839.81;5029320;28;20030;-69
2023/06/19 03:29:50;;;;;;;106.03;101.37;;;;;;;26.65;35.32;100854.78;5014386;28;20041;-69
2023/06/19 03:32:15;;;;;;;107.38;102.50;;;;;;;26.63;35.88;100851.56;5012861;28;20029;-69
2023/06/19 03:34:41;;;;;;;109.40;104.55;;;;;;;26.62;35.73;100854.69;5013927;28;20030;-69
2023/06/19 03:37:06;;;;;;;104.22;99.57;;;;;;;26.60;35.61;100855.03;5014392;28;20048;-69
2023/06/19 03:39:31;;;;;;;103.45;98.88;;;;;;;26.58;35.77;100854.56;5013921;28;20124;-69
2023/06/19 03:41:57;;;;;;;107.45;102.55;;;;;;;26.57;35.55;100869.59;5014387;28;20109;-69
2023/06/19 03:44:22;;;;;;;104.50;99.75;;;;;;;26.55;35.28;100866.34;5014068;28;20117;-69
2023/06/19 03:46:47;;;;;;;104.80;100.10;;;;;;;26.54;35.70;100870.28;5013856;28;20533;-69
2023/06/19 03:49:13;;;;;;;105.25;100.45;;;;;;;26.53;36.38;100874.19;5014270;28;20030;-69
2023/06/19 03:51:38;;;;;;;106.35;101.63;;;;;;;26.50;36.05;100878.44;5013714;28;20111;-69
2023/06/19 03:54:04;;;;;;;105.80;101.03;;;;;;;26.50;36.10;100874.88;5013939;28;20041;-69
2023/06/19 03:56:29;;;;;;;106.57;101.85;;;;;;;26.48;36.04;100885.50;5014193;28;20518;-69
2023/06/19 03:58:55;;;;;;;104.53;99.57;;;;;;;26.46;35.88;100894.16;5014034;28;20100;-69
2023/06/19 04:01:20;;;;;;;104.38;99.75;;;;;;;26.45;36.13;100889.75;5013948;28;20026;-69
2023/06/19 04:03:45;;;;;;;105.75;100.97;;;;;;;26.44;36.61;100895.66;5013393;28;20497;-69
2023/06/19 04:06:11;;;;;;;104.22;99.63;;;;;;;26.42;36.26;100898.78;5013887;28;20030;-69
2023/06/19 04:08:36;;;;;;;108.60;103.80;;;;;;;26.41;36.19;100899.09;5013311;28;20033;-69
2023/06/19 04:11:02;;;;;;;104.18;99.38;;;;;;;26.41;36.75;100899.09;5028879;28;20045;-69
2023/06/19 04:13:27;;;;;;;106.03;101.22;;;;;;;26.40;37.11;100901.06;5013239;28;20065;-69
2023/06/19 04:15:53;;;;;;;106.32;101.53;;;;;;;26.38;37.18;100905.34;5012371;28;20030;-69
2023/06/19 04:18:18;;;;;;;100.38;95.78;;;;;;;26.36;36.81;100913.19;5013162;28;20038;-69
2023/06/19 04:20:43;;;;;;;103.28;98.57;;;;;;;26.35;36.71;100909.63;5013220;28;20029;-69
2023/06/19 04:23:09;;;;;;;106.72;101.63;;;;;;;26.33;37.16;100915.50;5013187;28;20485;-69
2023/06/19 04:25:35;;;;;;;104.40;99.75;;;;;;;26.32;36.71;100922.19;5012861;28;20091;-69
2023/06/19 04:28:03;;;;;;;101.80;97.18;;;;;;;26.31;37.12;100919.78;5013151;28;20120;-69
2023/06/19 04:30:28;;;;;;;;;;;;;;;26.30;36.43;100921.72;5013251;28;20042;-69
2023/06/19 04:32:54;;;;;;;98.90;94.45;;;;;;;26.27;36.89;100925.19;5012675;28;19932;-69
2023/06/19 04:35:20;;;;;;;98.90;94.45;;;;;;;26.25;36.92;100927.50;5013156;28;20033;-70
2023/06/19 04:37:48;;;;;;;103.15;98.38;;;;;;;26.24;37.02;100928.66;5013146;28;20117;-69
2023/06/19 04:40:14;;;;;;;102.38;97.38;;;;;;;26.24;36.96;100934.19;5013411;28;20426;-69
2023/06/19 04:42:39;;;;;;;103.15;98.45;;;;;;;26.23;37.35;100940.06;5013122;28;20528;-69
2023/06/19 04:45:07;;;;;;;104.40;99.18;;;;;;;26.22;37.05;100947.56;5012720;28;20037;-69
2023/06/19 04:47:33;;;;;;;101.88;97.28;;;;;;;26.21;37.25;100945.16;5013013;28;20121;-69
2023/06/19 04:49:59;;;;;;;104.55;99.47;;;;;;;26.19;37.29;100951.03;5012821;28;20033;-69
2023/06/19 04:52:25;;;;;;;103.75;98.93;;;;;;;26.19;36.92;100953.00;5012985;28;20381;-69
2023/06/19 04:54:50;;;;;;;103.55;98.70;;;;;;;26.17;37.13;100953.31;5012678;28;20029;-69
2023/06/19 04:57:15;;;;;;;101.70;97.00;;;;;;;26.15;36.29;100952.06;5012814;28;20367;-69
2023/06/19 04:59:43;;;;;;;106.82;101.80;;;;;;;26.13;36.66;100955.16;5012782;28;20025;-69
2023/06/19 05:02:10;;;;;;;100.68;96.07;;;;;;;26.13;36.36;100960.69;5012911;28;20049;-69
2023/06/19 05:04:35;;;;;;;103.60;98.82;;;;;;;26.11;36.44;100958.28;5012479;28;20208;-69
2023/06/19 05:07:02;;;;;;;105.22;100.28;;;;;;;26.11;36.72;100954.72;5012854;28;20030;-69
2023/06/19 05:09:28;;;;;;;104.35;99.63;;;;;;;26.09;36.79;100948.69;5011649;28;20116;-69
2023/06/19 05:11:53;;;;;;;103.18;98.07;;;;;;;26.08;37.07;100947.06;5012325;28;20525;-69
2023/06/19 05:14:18;;;;;;;100.13;95.60;;;;;;;26.07;36.69;100962.88;5011963;28;20050;-69
2023/06/19 05:16:44;;;;;;;103.55;98.75;;;;;;;26.05;36.83;100954.09;5012123;28;20033;-69
2023/06/19 05:19:09;;;;;;;102.63;97.85;;;;;;;26.06;37.37;100963.22;5012320;28;20038;-69
2023/06/19 05:21:35;;;;;;;100.60;95.85;;;;;;;26.04;37.40;100966.34;5012821;28;20029;-69
2023/06/19 05:24:01;;;;;;;100.00;95.35;;;;;;;26.03;37.49;100967.50;5011690;28;20115;-69
2023/06/19 05:26:26;;;;;;;102.10;97.40;;;;;;;26.03;37.23;100969.44;5012334;28;20397;-69
2023/06/19 05:28:51;;;;;;;102.60;97.80;;;;;;;26.01;37.04;100978.09;5011387;28;20034;-69
2023/06/19 05:31:18;;;;;;;101.95;97.18;;;;;;;26.01;37.24;100971.75;5012115;28;20141;-69
2023/06/19 05:33:44;;;;;;;102.60;97.90;;;;;;;25.99;37.27;100977.63;5011942;28;20030;-69
2023/06/19 05:36:10;;;;;;;102.88;98.18;;;;;;;25.98;37.41;100976.03;5011942;28;20180;-69
2023/06/19 05:38:35;;;;;;;100.35;95.85;;;;;;;25.98;37.57;100984.31;5012458;28;20033;-69
2023/06/19 05:41:02;;;;;;;99.30;94.65;;;;;;;25.97;37.20;100991.00;5011353;28;20406;-69
2023/06/19 05:43:27;;;;;;;101.00;96.40;;;;;;;25.96;37.71;100981.09;5012176;28;20402;-69
2023/06/19 05:45:54;;;;;;;100.70;95.60;;;;;;;25.95;37.46;100978.66;5011577;28;20041;-69
2023/06/19 05:48:19;;;;;;;103.05;98.35;;;;;;;25.94;37.63;100988.09;5012267;28;20030;-69
2023/06/19 05:50:45;;;;;;;101.97;97.18;;;;;;;25.92;37.29;100988.44;5011684;28;20034;-69
2023/06/19 05:53:10;;;;;;;102.20;97.32;;;;;;;25.93;37.36;100989.25;5010766;28;20079;-69
2023/06/19 05:55:36;;;;;;;102.50;97.68;;;;;;;25.91;37.56;100986.84;5012282;28;20463;-69
2023/06/19 05:58:03;;;;;;;97.97;93.45;;;;;;;25.90;37.51;100988.78;5011621;28;20026;-69
2023/06/19 06:00:29;;;;;;;100.97;96.32;;;;;;;25.89;37.66;100992.69;5012217;28;20123;-69
2023/06/19 06:02:59;;;;;;;103.95;99.00;;;;;;;25.88;37.19;100999.41;5011679;28;20065;-69
2023/06/19 06:05:26;;;;;;;101.78;97.13;;;;;;;25.88;37.15;100998.59;5011913;28;20426;-69
2023/06/19 06:07:52;;;;;;;101.18;95.65;;;;;;;25.87;37.23;101003.28;5011715;28;20156;-69
2023/06/19 06:10:18;;;;;;;98.20;93.53;;;;;;;25.88;37.20;101013.22;5011676;28;20061;-69
2023/06/19 06:12:44;;;;;;;99.60;94.90;;;;;;;25.87;36.96;101019.09;5011697;28;20030;-69
2023/06/19 06:15:09;;;;;;;99.13;94.45;;;;;;;25.86;37.62;101010.00;5011877;28;20179;-69
2023/06/19 06:17:35;;;;;;;99.05;94.43;;;;;;;25.87;37.42;101017.13;5011520;28;20390;-69
2023/06/19 06:20:01;;;;;;;97.95;93.00;;;;;;;25.86;37.15;101026.59;5011560;28;20109;-69
2023/06/19 06:22:26;;;;;;;101.30;96.40;;;;;;;25.86;37.73;101023.81;5011961;28;20134;-68
2023/06/19 06:24:53;;;;;;;103.47;98.50;;;;;;;25.87;37.66;101032.94;5011526;28;20394;-69
2023/06/19 06:27:18;;;;;;;100.13;95.18;;;;;;;25.87;37.62;101033.72;5011336;28;20390;-69
2023/06/19 06:29:43;;;;;;;100.20;95.45;;;;;;;25.87;36.95;101027.41;5010815;28;20041;-69
2023/06/19 06:32:09;;;;;;;101.45;96.75;;;;;;;25.86;37.40;101045.97;5011662;28;20038;-69
2023/06/19 06:34:34;;;;;;;99.25;94.55;;;;;;;25.87;37.57;101046.78;5011675;28;20026;-68
2023/06/19 06:37:00;;;;;;;102.22;97.22;;;;;;;25.86;37.49;101051.50;5011205;28;20038;-69
2023/06/19 06:39:26;;;;;;;104.05;99.20;;;;;;;25.87;37.45;101049.53;5011982;28;20042;-68
2023/06/19 06:41:52;;;;;;;102.95;98.05;;;;;;;25.87;37.12;101053.09;5014593;28;20497;-69
2023/06/19 06:44:17;;;;;;;102.38;97.35;;;;;;;25.86;37.46;101057.03;5015469;28;20386;-69
2023/06/19 06:46:42;;;;;;;99.85;95.05;;;;;;;25.88;37.26;101063.03;5015107;28;20092;-69
2023/06/19 06:49:08;;;;;;;104.03;98.18;;;;;;;25.88;37.25;101060.28;5014562;28;20117;-69
2023/06/19 06:51:33;;;;;;;102.85;97.55;;;;;;;25.89;37.28;101067.41;5015469;28;20033;-69
2023/06/19 06:53:59;;;;;;;105.68;100.22;;;;;;;25.89;37.51;101067.41;5014217;28;20089;-69
2023/06/19 06:56:24;;;;;;;104.35;99.25;;;;;;;25.90;37.26;101069.06;5019356;28;20462;-69
2023/06/19 06:58:49;;;;;;;106.65;101.35;;;;;;;25.93;37.80;101084.16;5034046;28;20045;-69
2023/06/19 07:01:15;;;;;;;99.78;95.18;;;;;;;25.94;37.16;101074.72;5033275;28;20040;-70
2023/06/19 07:03:40;;;;;;;101.70;96.72;;;;;;;25.94;37.15;101085.78;5034629;28;20048;-69
2023/06/19 07:06:06;;;;;;;100.78;96.05;;;;;;;25.95;37.24;101087.38;5033743;28;20124;-69
2023/06/19 07:08:31;;;;;;;102.50;97.50;;;;;;;25.96;37.41;101091.00;5033971;28;20036;-69
2023/06/19 07:10:56;;;;;;;103.32;98.40;;;;;;;25.97;36.99;101098.94;5033740;28;20060;-69
2023/06/19 07:13:22;;;;;;;103.95;98.78;;;;;;;26.00;37.47;101097.44;5033982;28;20060;-69
2023/06/19 07:15:47;;;;;;;103.75;98.63;;;;;;;26.02;37.48;101103.47;5033295;28;20037;-69
2023/06/19 07:18:13;;;;;;;103.72;98.70;;;;;;;26.02;37.41;101107.03;5033931;28;20072;-69
2023/06/19 07:20:38;;;;;;;102.35;97.07;;;;;;;26.04;37.36;101106.72;5033987;28;20433;-69
2023/06/19 07:23:04;;;;;;;103.55;98.45;;;;;;;26.06;37.17;101107.19;5032346;28;20037;-69
2023/06/19 07:25:29;;;;;;;102.90;97.82;;;;;;;26.07;37.19;101114.31;5032898;28;20045;-69
2023/06/19 07:27:55;;;;;;;105.78;100.75;;;;;;;26.08;37.41;101122.31;5034291;28;20159;-69
2023/06/19 07:30:20;;;;;;;108.55;103.35;;;;;;;26.11;37.26;101127.16;5032940;28;20072;-69
2023/06/19 07:32:46;;;;;;;102.55;97.75;;;;;;;26.12;37.60;101122.41;5033580;28;20037;-69
2023/06/19 07:35:11;;;;;;;103.72;98.82;;;;;;;26.13;37.28;101124.03;5033215;28;20033;-69
2023/06/19 07:37:37;;;;;;;108.20;102.72;;;;;;;26.16;37.56;101120.59;5033332;28;20029;-69
2023/06/19 07:40:03;;;;;;;104.13;99.28;;;;;;;26.17;37.50;101124.97;5032258;28;20449;-69
2023/06/19 07:42:28;;;;;;;108.18;102.97;;;;;;;26.19;37.51;101121.88;5033358;28;20048;-69
2023/06/19 07:44:53;;;;;;;106.97;101.63;;;;;;;26.20;37.49;101116.00;5033096;28;20428;-68
2023/06/19 07:47:20;;;;;;;109.18;103.88;;;;;;;26.22;37.60;101116.47;5033165;28;20108;-69
2023/06/19 07:49:46;;;;;;;105.72;100.63;;;;;;;26.25;37.24;101118.56;5033049;28;20037;-69
2023/06/19 07:52:13;;;;;;;108.38;103.28;;;;;;;26.26;37.46;101122.97;5031925;28;20033;-68
2023/06/19 07:54:51;;;;;;;106.40;101.07;;;;;;;26.28;37.83;101128.13;5033039;28;20030;-68
2023/06/19 07:57:16;;;;;;;;;;;;;;;26.29;37.07;101127.81;5032453;28;20473;-68
2023/06/19 07:59:42;;;;;;;103.10;97.85;;;;;;;26.30;37.63;101140.50;5033133;28;20030;-68
2023/06/19 08:02:07;;;;;;;105.55;100.53;;;;;;;26.31;37.18;101142.13;5032156;28;20025;-68
2023/06/19 08:04:32;;;;;;;105.72;100.05;;;;;;;26.33;37.73;101147.31;5032760;28;20068;-69
2023/06/19 08:06:58;;;;;;;106.28;100.78;;;;;;;26.36;37.34;101148.59;5032479;28;20033;-69
2023/06/19 08:09:23;;;;;;;102.40;97.45;;;;;;;26.38;37.63;101143.53;5031139;28;20114;-69
2023/06/19 08:11:48;;;;;;;105.45;100.25;;;;;;;26.39;37.58;101143.19;5032770;28;20385;-68
2023/06/19 08:14:14;;;;;;;109.13;103.72;;;;;;;26.41;37.63;101142.84;5032453;28;20375;-69
2023/06/19 08:16:39;;;;;;;105.55;100.43;;;;;;;26.45;37.36;101143.78;5032184;28;20112;-68
2023/06/19 08:19:04;;;;;;;107.30;102.13;;;;;;;26.45;37.27;101138.25;5032531;28;20041;-69
2023/06/19 08:21:30;;;;;;;107.50;102.40;;;;;;;26.47;37.51;101138.72;5032855;28;20107;-69
2023/06/19 08:23:55;;;;;;;112.03;106.72;;;;;;;26.48;37.13;101135.59;5032401;28;20470;-69
2023/06/19 08:26:21;;;;;;;110.05;104.65;;;;;;;26.49;37.13;101131.69;5032463;28;20048;-68
2023/06/19 08:28:46;;;;;;;111.07;105.65;;;;;;;26.52;37.28;101135.72;5032004;28;20116;-68
2023/06/19 08:31:11;;;;;;;111.05;105.45;;;;;;;26.55;37.21;101137.84;5031858;28;20187;-69
2023/06/19 08:33:37;;;;;;;107.88;102.78;;;;;;;26.58;37.74;101153.78;5020430;28;20399;-69
2023/06/19 08:36:02;;;;;;;110.63;104.72;;;;;;;26.61;37.46;101155.06;5012997;28;20446;-68
2023/06/19 08:38:28;;;;;;;109.13;104.00;;;;;;;26.62;37.62;101151.16;5028864;28;20037;-68
2023/06/19 08:40:55;;;;;;;109.80;104.43;;;;;;;26.65;37.36;101156.81;5031404;28;20029;-68
2023/06/19 08:43:20;;;;;;;107.55;102.35;;;;;;;26.67;37.46;101151.75;5032112;28;20045;-69
2023/06/19 08:46:15;;;;;;;106.13;100.97;;;;;;;26.70;37.35;101151.06;5031984;28;20033;-69
2023/06/19 08:48:41;;;;;;;106.68;101.55;;;;;;;26.72;36.98;101156.25;5027208;28;20041;-69
2023/06/19 08:51:06;;;;;;;112.80;107.40;;;;;;;26.74;37.14;101157.53;5031930;28;20056;-69
2023/06/19 08:53:43;;;;;;;107.63;102.45;;;;;;;26.78;37.10;101154.88;5032234;28;20087;-69
2023/06/19 08:56:09;;;;;;;106.00;100.95;;;;;;;26.82;37.11;101160.56;5031446;28;20507;-68
2023/06/19 08:58:34;;;;;;;107.35;102.13;;;;;;;26.84;37.13;101164.59;5032034;28;20037;-68
2023/06/19 09:01:00;;;;;;;110.13;104.70;;;;;;;26.86;37.44;101167.84;5029493;28;20125;-69
2023/06/19 09:03:25;;;;;;;107.43;102.43;;;;;;;26.89;37.23;101181.03;5030830;28;20462;-69
2023/06/19 09:05:51;;;;;;;111.03;105.35;;;;;;;26.94;37.52;101188.31;5030622;28;20043;-69
2023/06/19 09:08:17;;;;;;;111.72;106.22;;;;;;;26.96;37.00;101188.75;5012049;28;20048;-69
2023/06/19 09:10:53;;;;;;;112.15;106.75;;;;;;;27.00;37.40;101183.34;5012752;28;20030;-69
2023/06/19 09:13:18;;;;;;;110.63;104.93;;;;;;;27.04;37.06;101181.50;5012091;28;20046;-69
2023/06/19 09:15:44;;;;;;;112.28;106.97;;;;;;;27.08;36.99;101174.91;5030132;28;20469;-68
2023/06/19 09:18:13;;;;;;;114.57;108.80;;;;;;;27.12;36.98;101186.16;5030074;28;20038;-69
2023/06/19 09:20:44;;;;;;;113.28;107.45;;;;;;;27.14;37.34;101184.66;5031787;28;20029;-69
2023/06/19 09:23:13;;;;;;;116.47;110.53;;;;;;;27.19;37.03;101187.22;5030328;28;20033;-69
2023/06/19 09:25:57;;;;;;;115.97;110.28;;;;;;;27.24;37.37;101190.91;5031587;28;20112;-69
2023/06/19 09:28:25;;;;;;;113.38;107.63;;;;;;;27.28;37.03;101200.97;5030893;28;20036;-69
2023/06/19 09:31:02;;;;;;;113.25;107.35;;;;;;;27.34;37.25;101201.53;5032023;28;20029;-69
2023/06/19 09:33:32;;;;;;;113.70;107.70;;;;;;;27.37;36.86;101195.34;5032003;28;20040;-69
2023/06/19 09:35:59;;;;;;;113.25;107.63;;;;;;;27.44;36.97;101189.19;5031684;28;20037;-69
2023/06/19 09:38:26;;;;;;;117.75;112.05;;;;;;;27.49;36.69;101197.28;5030094;28;20128;-69
2023/06/19 09:40:52;;;;;;;116.07;110.30;;;;;;;27.54;36.79;101195.09;5031409;28;20132;-69
2023/06/19 09:43:27;;;;;;;118.60;113.13;;;;;;;27.60;36.94;101202.03;5031085;28;20063;-69
2023/06/19 09:45:55;;;;;;;116.70;111.10;;;;;;;27.66;36.77;101197.03;5031526;28;20033;-69
2023/06/19 09:48:32;;;;;;;118.93;112.82;;;;;;;27.72;37.08;101194.84;5030274;28;20029;-69
2023/06/19 09:51:04;;;;;;;118.75;113.10;;;;;;;27.79;37.10;101200.63;5031507;28;20458;-68
2023/06/19 09:53:30;;;;;;;119.20;113.32;;;;;;;27.86;36.85;101200.06;5031332;28;20040;-68
2023/06/19 09:55:56;;;;;;;120.97;114.80;;;;;;;27.91;36.95;101197.84;5030992;28;20037;-69
2023/06/19 09:58:22;;;;;;;121.63;115.30;;;;;;;27.97;36.95;101196.47;5030405;28;20554;-69
2023/06/19 10:00:50;;;;;;;114.03;108.07;;;;;;;28.03;36.29;101203.38;5031114;28;20033;-69
2023/06/19 10:03:16;;;;;;;120.88;114.93;;;;;;;28.10;36.51;101211.13;5030785;28;20495;-69
2023/06/19 10:05:42;;;;;;;119.43;114.05;;;;;;;28.17;36.28;101207.75;5031009;28;20029;-69
2023/06/19 10:08:08;;;;;;;122.45;116.25;;;;;;;28.24;36.21;101200.44;5030657;28;20042;-69
2023/06/19 10:10:34;;;;;;;119.78;114.18;;;;;;;28.30;36.31;101198.22;5031142;28;20417;-69
2023/06/19 10:13:17;;;;;;;120.82;114.30;;;;;;;28.40;36.35;101196.91;5029887;28;20091;-69
2023/06/19 10:15:44;;;;;;;120.05;114.22;;;;;;;28.46;36.29;101195.53;5033129;28;20045;-69
2023/06/19 10:18:17;;;;;;;124.80;118.25;;;;;;;28.54;36.05;101197.34;5034565;28;20041;-69
2023/06/19 10:20:43;;;;;;;123.97;117.90;;;;;;;28.62;36.27;101201.94;5034387;28;20033;-69
2023/06/19 10:23:17;;;;;;;125.45;119.55;;;;;;;28.69;36.07;101193.78;5015157;28;20044;-69
2023/06/19 10:25:44;;;;;;;124.47;118.03;;;;;;;28.76;35.92;101209.06;5015415;28;20030;-69
2023/06/19 10:28:21;;;;;;;125.45;119.00;;;;;;;28.84;35.92;101202.53;5015158;28;20037;-69
2023/06/19 10:31:02;;;;;;;129.60;123.22;;;;;;;28.91;35.61;101209.09;5015582;28;20033;-69
2023/06/19 10:33:40;;;;;;;124.78;118.78;;;;;;;28.99;35.65;101212.06;5015482;28;20033;-69
2023/06/19 10:36:18;;;;;;;129.50;123.63;;;;;;;29.06;35.51;101209.50;5014925;28;20378;-69
2023/06/19 10:38:47;;;;;;;125.45;119.45;;;;;;;29.12;35.61;101211.66;5016190;28;20277;-70
2023/06/19 10:41:20;;;;;;;127.53;121.30;;;;;;;29.19;35.12;101210.22;5014736;28;20091;-69
2023/06/19 10:44:06;;;;;;;126.72;120.03;;;;;;;29.25;34.98;101212.38;5015261;28;20025;-69
2023/06/19 10:46:36;;;;;;;127.22;121.32;;;;;;;29.32;35.22;101215.34;5015502;28;20148;-69
2023/06/19 10:49:04;;;;;;;131.45;125.32;;;;;;;29.39;35.22;101211.13;5014925;28;20468;-69
2023/06/19 10:51:30;;;;;;;129.80;123.57;;;;;;;29.44;34.98;101208.88;5015350;28;20030;-69
2023/06/19 10:53:57;;;;;;;130.82;124.43;;;;;;;29.51;34.92;101205.47;5015143;28;20092;-69
2023/06/19 10:56:24;;;;;;;126.82;120.78;;;;;;;29.57;34.95;101197.66;5014413;28;20041;-69